createdAt,value
2018-07-09T00:00:54.771Z,1.90
2018-07-09T00:03:23.259Z,2.20
2018-07-09T00:05:52.864Z,2.60
2018-07-09T00:08:21.706Z,2.10
2018-07-09T00:10:57.195Z,1.90
2018-07-09T00:13:26.286Z,2.17
2018-07-09T00:15:55.087Z,1.80
2018-07-09T00:18:23.702Z,2.23
2018-07-09T00:20:52.152Z,2.07
2018-07-09T00:23:20.617Z,2.00
2018-07-09T00:25:50.023Z,2.50
2018-07-09T00:28:19.585Z,2.13
2018-07-09T00:30:48.119Z,2.30
2018-07-09T00:33:17.515Z,2.13
2018-07-09T00:35:46.402Z,2.20
2018-07-09T00:38:15.042Z,2.03
2018-07-09T00:40:45.239Z,2.00
2018-07-09T00:43:13.690Z,1.97
2018-07-09T00:45:42.283Z,2.07
2018-07-09T00:48:10.791Z,2.43
2018-07-09T00:50:39.354Z,2.33
2018-07-09T00:53:07.801Z,2.00
2018-07-09T00:55:36.355Z,2.10
2018-07-09T00:58:05.078Z,1.90
2018-07-09T01:00:33.762Z,2.30
2018-07-09T01:03:02.340Z,2.37
2018-07-09T01:05:30.774Z,2.10
2018-07-09T01:07:59.198Z,1.90
2018-07-09T01:10:27.755Z,2.47
2018-07-09T01:12:56.212Z,2.20
2018-07-09T01:15:24.923Z,2.50
2018-07-09T01:17:53.643Z,1.93
2018-07-09T01:20:22.120Z,2.20
2018-07-09T01:22:50.681Z,1.80
2018-07-09T01:25:19.214Z,2.10
2018-07-09T01:27:47.777Z,2.03
2018-07-09T01:30:16.741Z,2.00
2018-07-09T01:32:45.532Z,2.03
2018-07-09T01:35:14.506Z,2.10
2018-07-09T01:37:43.379Z,2.00
2018-07-09T01:40:12.155Z,1.93
2018-07-09T01:42:40.603Z,2.30
2018-07-09T01:45:09.054Z,2.47
2018-07-09T01:47:37.463Z,2.53
2018-07-09T01:50:05.898Z,2.37
2018-07-09T01:52:34.310Z,2.67
2018-07-09T01:55:02.782Z,2.33
2018-07-09T01:57:31.230Z,2.10
2018-07-09T01:59:59.770Z,2.20
2018-07-09T02:02:28.171Z,2.00
2018-07-09T02:04:56.651Z,2.30
2018-07-09T02:07:25.118Z,2.30
2018-07-09T02:09:54.289Z,1.97
2018-07-09T02:12:22.795Z,2.77
2018-07-09T02:14:51.188Z,2.43
2018-07-09T02:17:19.819Z,2.50
2018-07-09T02:19:48.247Z,2.07
2018-07-09T02:22:17.063Z,2.20
2018-07-09T02:24:45.659Z,2.20
2018-07-09T02:27:14.686Z,2.27
2018-07-09T02:29:43.221Z,1.97
2018-07-09T02:32:11.655Z,2.30
2018-07-09T02:34:40.139Z,2.43
2018-07-09T02:37:08.626Z,2.20
2018-07-09T02:39:37.042Z,2.57
2018-07-09T02:42:05.704Z,2.20
2018-07-09T02:44:34.147Z,2.60
2018-07-09T02:47:02.556Z,2.23
2018-07-09T02:49:31.181Z,2.43
2018-07-09T02:51:59.610Z,2.30
2018-07-09T02:54:28.074Z,2.33
2018-07-09T02:56:56.527Z,2.20
2018-07-09T02:59:25.064Z,2.33
2018-07-09T03:01:53.527Z,2.50
2018-07-09T03:04:22.156Z,2.40
2018-07-09T03:06:50.794Z,2.50
2018-07-09T03:09:19.495Z,2.00
2018-07-09T03:11:48.074Z,2.30
2018-07-09T03:14:16.486Z,2.20
2018-07-09T03:16:45.020Z,2.83
2018-07-09T03:19:13.548Z,2.03
2018-07-09T03:21:41.959Z,2.10
2018-07-09T03:24:10.588Z,2.17
2018-07-09T03:26:41.062Z,2.30
2018-07-09T03:29:09.199Z,2.50
2018-07-09T03:31:37.936Z,2.23
2018-07-09T03:34:06.383Z,2.33
2018-07-09T03:36:34.990Z,2.60
2018-07-09T03:39:03.966Z,2.27
2018-07-09T03:41:32.511Z,2.70
2018-07-09T03:44:01.062Z,2.20
2018-07-09T03:46:30.296Z,2.60
2018-07-09T03:48:58.880Z,2.27
2018-07-09T03:51:27.516Z,2.50
2018-07-09T03:53:56.027Z,2.20
2018-07-09T03:56:24.579Z,2.80
2018-07-09T03:58:53.434Z,2.60
2018-07-09T04:01:21.882Z,2.40
2018-07-09T04:03:50.435Z,2.30
2018-07-09T04:06:19.170Z,2.60
2018-07-09T04:08:48.571Z,2.30
2018-07-09T04:11:17.227Z,2.30
2018-07-09T04:13:46.359Z,2.70
2018-07-09T04:16:14.936Z,2.87
2018-07-09T04:18:44.315Z,2.77
2018-07-09T04:21:12.785Z,2.23
2018-07-09T04:23:41.204Z,2.33
2018-07-09T04:26:09.397Z,2.37
2018-07-09T04:28:37.584Z,2.17
2018-07-09T04:31:06.301Z,2.30
2018-07-09T04:33:34.930Z,2.80
2018-07-09T04:36:03.751Z,2.30
2018-07-09T04:38:32.312Z,2.43
2018-07-09T04:41:00.723Z,2.90
2018-07-09T04:43:29.331Z,2.90
2018-07-09T04:45:57.896Z,2.60
2018-07-09T04:48:26.418Z,2.70
2018-07-09T04:50:54.949Z,2.73
2018-07-09T04:53:23.545Z,2.83
2018-07-09T04:55:52.096Z,2.67
2018-07-09T04:58:20.517Z,2.63
2018-07-09T05:00:49.088Z,2.60
2018-07-09T05:03:17.582Z,2.70
2018-07-09T05:05:46.050Z,2.80
2018-07-09T05:08:14.499Z,2.50
2018-07-09T05:13:17.734Z,2.73
2018-07-09T05:15:46.421Z,2.77
2018-07-09T05:18:14.978Z,2.83
2018-07-09T05:20:43.747Z,2.90
2018-07-09T05:23:13.862Z,3.00
2018-07-09T05:25:42.467Z,2.87
2018-07-09T05:28:11.026Z,3.00
2018-07-09T05:30:39.525Z,3.13
2018-07-09T05:33:08.164Z,3.10
2018-07-09T05:35:36.694Z,3.37
2018-07-09T05:38:05.391Z,3.37
2018-07-09T05:40:34.235Z,2.87
2018-07-09T05:43:03.938Z,3.10
2018-07-09T05:45:32.660Z,3.30
2018-07-09T05:48:01.395Z,2.70
2018-07-09T05:50:29.985Z,2.70
2018-07-09T05:52:58.492Z,2.60
2018-07-09T05:55:27.082Z,2.70
2018-07-09T05:57:55.900Z,2.57
2018-07-09T06:00:24.467Z,2.30
2018-07-09T06:02:53.139Z,2.33
2018-07-09T06:05:22.148Z,2.50
2018-07-09T06:07:51.344Z,2.53
2018-07-09T06:10:19.827Z,1.93
2018-07-09T06:12:48.375Z,2.37
2018-07-09T06:15:17.004Z,2.20
2018-07-09T06:17:45.582Z,2.03
2018-07-09T06:20:14.164Z,2.40
2018-07-09T06:22:42.606Z,2.20
2018-07-09T06:25:11.187Z,2.17
2018-07-09T06:27:39.854Z,2.47
2018-07-09T06:30:08.374Z,1.90
2018-07-09T06:32:36.884Z,2.33
2018-07-09T06:35:05.398Z,2.20
2018-07-09T06:37:33.911Z,2.37
2018-07-09T06:40:02.477Z,1.93
2018-07-09T06:42:30.963Z,2.00
2018-07-09T06:44:59.622Z,2.00
2018-07-09T06:47:28.536Z,2.27
2018-07-09T06:49:56.997Z,1.80
2018-07-09T06:52:25.496Z,2.20
2018-07-09T06:54:53.938Z,1.90
2018-07-09T06:57:22.458Z,1.80
2018-07-09T06:59:51.218Z,2.00
2018-07-09T07:02:20.449Z,2.00
2018-07-09T07:04:48.922Z,1.73
2018-07-09T07:07:17.509Z,2.10
2018-07-09T07:09:46.408Z,1.90
2018-07-09T07:12:15.010Z,1.93
2018-07-09T07:14:43.669Z,1.80
2018-07-09T07:17:12.310Z,1.83
2018-07-09T07:19:40.750Z,1.80
2018-07-09T07:22:09.292Z,1.83
2018-07-09T07:24:39.600Z,1.97
2018-07-09T07:27:08.199Z,1.63
2018-07-09T07:29:38.264Z,1.90
2018-07-09T07:32:06.923Z,1.60
2018-07-09T07:34:35.375Z,1.60
2018-07-09T07:37:03.893Z,1.90
2018-07-09T07:39:32.424Z,2.30
2018-07-09T07:42:00.871Z,2.00
2018-07-09T07:44:29.420Z,2.07
2018-07-09T07:46:58.023Z,2.10
2018-07-09T07:49:26.663Z,2.10
2018-07-09T07:51:55.133Z,2.00
2018-07-09T07:54:23.547Z,1.83
2018-07-09T07:56:52.582Z,2.17
2018-07-09T07:59:21.179Z,1.90
2018-07-09T08:01:49.671Z,2.13
2018-07-09T08:04:18.090Z,2.03
2018-07-09T08:06:46.647Z,2.00
2018-07-09T08:09:15.156Z,2.50
2018-07-09T08:11:50.132Z,2.10
2018-07-09T08:14:12.270Z,1.97
2018-07-09T08:16:40.806Z,2.33
2018-07-09T08:19:09.428Z,2.73
2018-07-09T08:21:39.728Z,2.00
2018-07-09T08:24:08.216Z,2.10
2018-07-09T08:26:36.735Z,2.60
2018-07-09T08:29:05.320Z,2.60
2018-07-09T08:31:34.322Z,2.67
2018-07-09T08:34:02.927Z,2.33
2018-07-09T08:36:31.433Z,2.50
2018-07-09T08:38:59.899Z,2.27
2018-07-09T08:41:28.423Z,2.30
2018-07-09T08:43:56.954Z,2.30
2018-07-09T08:46:25.477Z,2.47
2018-07-09T08:48:54.090Z,2.57
2018-07-09T08:51:22.663Z,2.30
2018-07-09T08:53:51.238Z,2.63
2018-07-09T08:56:19.827Z,2.60
2018-07-09T08:58:48.546Z,2.33
2018-07-09T09:01:17.202Z,2.70
2018-07-09T09:03:45.692Z,2.83
2018-07-09T09:06:14.303Z,2.83
2018-07-09T09:08:42.908Z,2.50
2018-07-09T09:11:11.446Z,2.80
2018-07-09T09:13:39.908Z,2.80
2018-07-09T09:16:08.605Z,2.77
2018-07-09T09:18:37.357Z,3.43
2018-07-09T09:21:06.052Z,2.70
2018-07-09T09:23:34.516Z,2.80
2018-07-09T09:26:02.970Z,2.70
2018-07-09T09:28:31.511Z,2.90
2018-07-09T09:30:59.958Z,2.87
2018-07-09T09:33:28.431Z,2.90
2018-07-09T09:35:56.908Z,2.87
2018-07-09T09:38:25.449Z,2.80
2018-07-09T09:40:53.995Z,2.53
2018-07-09T09:43:22.523Z,2.90
2018-07-09T09:45:50.983Z,3.20
2018-07-09T09:48:19.523Z,2.93
2018-07-09T09:50:48.031Z,2.97
2018-07-09T09:53:16.548Z,2.93
2018-07-09T09:55:45.028Z,2.77
2018-07-09T09:58:13.502Z,2.73
2018-07-09T10:00:47.362Z,2.87
2018-07-09T10:03:15.815Z,3.00
2018-07-09T10:05:44.303Z,2.90
2018-07-09T10:08:14.783Z,2.77
2018-07-09T10:10:43.334Z,2.80
2018-07-09T10:13:12.248Z,2.60
2018-07-09T10:15:40.339Z,2.77
2018-07-09T10:18:08.827Z,2.87
2018-07-09T10:20:37.247Z,2.97
2018-07-09T10:23:05.933Z,2.70
2018-07-09T10:25:34.503Z,2.63
2018-07-09T10:28:04.693Z,2.70
2018-07-09T10:30:33.511Z,2.40
2018-07-09T10:33:01.877Z,2.93
2018-07-09T10:35:30.562Z,2.57
2018-07-09T10:37:59.367Z,2.90
2018-07-09T10:40:27.848Z,2.70
2018-07-09T10:42:56.831Z,2.50
2018-07-09T10:45:25.441Z,2.50
2018-07-09T10:47:53.891Z,2.70
2018-07-09T10:50:22.448Z,2.60
2018-07-09T10:52:50.933Z,2.80
2018-07-09T10:55:19.669Z,2.40
2018-07-09T10:57:48.090Z,2.60
2018-07-09T11:00:16.527Z,2.50
2018-07-09T11:02:45.391Z,2.70
2018-07-09T11:05:13.990Z,2.70
2018-07-09T11:07:42.409Z,3.03
2018-07-09T11:10:10.880Z,2.30
2018-07-09T11:12:39.467Z,2.60
2018-07-09T11:15:08.004Z,2.77
2018-07-09T11:17:36.459Z,2.50
2018-07-09T11:20:05.140Z,2.60
2018-07-09T11:22:33.827Z,2.63
2018-07-09T11:25:04.143Z,2.50
2018-07-09T11:27:32.620Z,2.27
2018-07-09T11:30:01.115Z,2.20
2018-07-09T11:32:29.825Z,2.30
2018-07-09T11:34:59.010Z,2.20
2018-07-09T11:37:27.579Z,2.10
2018-07-09T11:39:56.019Z,2.30
2018-07-09T11:42:24.462Z,2.10
2018-07-09T11:44:53.166Z,2.07
2018-07-09T11:47:21.495Z,2.00
2018-07-09T11:49:49.930Z,1.90
2018-07-09T11:52:18.426Z,2.20
2018-07-09T11:54:47.006Z,2.00
2018-07-09T11:57:15.491Z,2.20
2018-07-09T11:59:43.975Z,1.90
2018-07-09T12:02:12.500Z,1.90
2018-07-09T12:04:41.278Z,2.27
2018-07-09T12:07:09.971Z,2.03
2018-07-09T12:09:38.610Z,1.77
2018-07-09T12:12:07.284Z,2.73
2018-07-09T12:14:35.946Z,2.30
2018-07-09T12:17:04.516Z,2.07
2018-07-09T12:19:33.214Z,1.83
2018-07-09T12:22:01.678Z,2.03
2018-07-09T12:24:30.236Z,2.00
2018-07-09T12:26:58.698Z,1.93
2018-07-09T12:29:27.164Z,1.70
2018-07-09T12:31:55.689Z,1.80
2018-07-09T12:34:24.395Z,1.90
2018-07-09T12:36:52.852Z,1.70
2018-07-09T12:39:21.556Z,1.80
2018-07-09T12:41:49.973Z,1.83
2018-07-09T12:44:18.487Z,2.07
2018-07-09T12:46:47.035Z,1.90
2018-07-09T12:49:15.744Z,1.63
2018-07-09T12:51:44.392Z,1.90
2018-07-09T12:54:12.868Z,1.70
2018-07-09T12:56:41.306Z,2.00
2018-07-09T12:59:09.747Z,1.93
2018-07-09T13:01:38.296Z,1.90
2018-07-09T13:04:08.172Z,1.70
2018-07-09T13:06:37.033Z,1.50
2018-07-09T13:09:05.855Z,1.90
2018-07-09T13:11:34.464Z,1.87
2018-07-09T13:14:03.108Z,1.70
2018-07-09T13:16:31.726Z,1.70
2018-07-09T13:19:00.908Z,1.90
2018-07-09T13:21:29.767Z,1.87
2018-07-09T13:23:58.319Z,1.80
2018-07-09T13:26:26.986Z,1.80
2018-07-09T13:28:55.526Z,1.93
2018-07-09T13:31:24.250Z,1.97
2018-07-09T13:33:52.695Z,1.70
2018-07-09T13:36:21.495Z,1.77
2018-07-09T13:38:50.206Z,1.80
2018-07-09T13:41:18.728Z,1.63
2018-07-09T13:43:47.399Z,1.60
2018-07-09T13:46:15.891Z,1.60
2018-07-09T13:48:45.176Z,1.77
2018-07-09T13:51:13.862Z,2.03
2018-07-09T13:53:42.556Z,1.30
2018-07-09T13:56:11.171Z,1.70
2018-07-09T13:58:39.984Z,1.60
2018-07-09T14:01:08.582Z,1.90
2018-07-09T14:03:38.352Z,1.60
2018-07-09T14:06:07.052Z,1.67
2018-07-09T14:08:37.718Z,1.70
2018-07-09T14:11:06.424Z,1.57
2018-07-09T14:13:35.153Z,1.40
2018-07-09T14:16:03.704Z,1.83
2018-07-09T14:18:32.338Z,1.30
2018-07-09T14:21:00.942Z,1.70
2018-07-09T14:23:29.422Z,1.60
2018-07-09T14:25:58.015Z,1.70
2018-07-09T14:28:26.504Z,1.20
2018-07-09T14:30:55.018Z,1.40
2018-07-09T14:33:23.626Z,1.43
2018-07-09T14:35:52.337Z,1.70
2018-07-09T14:38:20.809Z,1.53
2018-07-09T14:40:49.589Z,1.33
2018-07-09T14:43:18.241Z,1.50
2018-07-09T14:45:46.902Z,1.17
2018-07-09T14:48:15.507Z,1.37
2018-07-09T14:50:44.071Z,1.50
2018-07-09T14:53:12.552Z,1.12
2018-07-09T14:55:41.116Z,1.55
2018-07-09T14:58:09.864Z,1.20
2018-07-09T15:00:38.590Z,1.50
2018-07-09T15:03:07.159Z,1.55
2018-07-09T15:05:35.652Z,1.30
2018-07-09T15:08:04.219Z,1.20
2018-07-09T15:10:32.902Z,1.12
2018-07-09T15:13:01.557Z,1.47
2018-07-09T15:15:30.438Z,1.43
2018-07-09T15:17:58.930Z,1.40
2018-07-09T15:20:27.445Z,1.27
2018-07-09T15:22:55.937Z,1.60
2018-07-09T15:25:24.509Z,1.30
2018-07-09T15:27:52.989Z,1.20
2018-07-09T15:30:21.497Z,1.57
2018-07-09T15:32:49.999Z,1.33
2018-07-09T15:35:18.757Z,1.73
2018-07-09T15:37:47.381Z,1.50
2018-07-09T15:40:15.938Z,1.40
2018-07-09T15:42:44.733Z,1.50
2018-07-09T15:45:13.255Z,1.57
2018-07-09T15:47:41.879Z,1.47
2018-07-09T15:50:10.394Z,1.50
2018-07-09T15:52:38.870Z,1.20
2018-07-09T15:55:07.409Z,1.43
2018-07-09T15:57:35.988Z,1.53
2018-07-09T16:00:04.584Z,1.50
2018-07-09T16:02:33.011Z,1.33
2018-07-09T16:05:01.676Z,1.50
2018-07-09T16:07:30.195Z,1.53
2018-07-09T16:09:58.760Z,1.57
2018-07-09T16:12:27.384Z,1.23
2018-07-09T16:14:56.153Z,1.57
2018-07-09T16:17:24.727Z,1.23
2018-07-09T16:19:53.550Z,1.40
2018-07-09T16:22:22.062Z,1.43
2018-07-09T16:24:50.647Z,1.40
2018-07-09T16:27:19.247Z,1.40
2018-07-09T16:29:47.722Z,1.40
2018-07-09T16:32:16.238Z,1.57
2018-07-09T16:34:44.902Z,1.47
2018-07-09T16:37:13.384Z,1.50
2018-07-09T16:39:41.936Z,1.20
2018-07-09T16:42:10.443Z,1.43
2018-07-09T16:44:39.039Z,1.23
2018-07-09T16:47:07.627Z,1.20
2018-07-09T16:49:36.077Z,1.20
2018-07-09T16:52:04.592Z,1.20
2018-07-09T16:54:33.198Z,1.10
2018-07-09T16:57:02.132Z,1.70
2018-07-09T16:59:30.669Z,1.70
2018-07-09T17:01:59.207Z,1.30
2018-07-09T17:04:27.822Z,1.20
2018-07-09T17:06:56.532Z,1.37
2018-07-09T17:09:25.109Z,1.30
2018-07-09T17:11:53.736Z,1.27
2018-07-09T17:14:22.398Z,1.20
2018-07-09T17:16:50.949Z,1.57
2018-07-09T17:19:19.436Z,1.40
2018-07-09T17:21:47.904Z,1.50
2018-07-09T17:24:16.464Z,1.27
2018-07-09T17:26:45.133Z,1.20
2018-07-09T17:29:13.524Z,1.83
2018-07-09T17:31:42.102Z,1.73
2018-07-09T17:34:10.672Z,1.57
2018-07-09T17:36:39.158Z,1.53
2018-07-09T17:39:08.067Z,1.50
2018-07-09T17:41:36.749Z,1.63
2018-07-09T17:44:05.445Z,1.60
2018-07-09T17:46:34.918Z,1.87
2018-07-09T17:49:03.430Z,1.73
2018-07-09T17:51:31.936Z,1.43
2018-07-09T17:54:00.429Z,1.50
2018-07-09T17:56:28.967Z,1.50
2018-07-09T17:58:57.311Z,1.60
2018-07-09T18:01:25.910Z,1.60
2018-07-09T18:03:54.571Z,1.53
2018-07-09T18:06:23.208Z,1.80
2018-07-09T18:08:52.012Z,1.60
2018-07-09T18:11:20.617Z,1.93
2018-07-09T18:13:49.221Z,1.60
2018-07-09T18:16:18.343Z,1.80
2018-07-09T18:18:46.927Z,1.73
2018-07-09T18:21:15.477Z,1.90
2018-07-09T18:23:44.227Z,1.63
2018-07-09T18:26:12.732Z,2.03
2018-07-09T18:28:41.350Z,1.67
2018-07-09T18:31:09.863Z,1.70
2018-07-09T18:33:38.528Z,1.83
2018-07-09T18:36:07.141Z,1.70
2018-07-09T18:38:35.796Z,2.20
2018-07-09T18:41:04.365Z,2.00
2018-07-09T18:43:32.938Z,2.03
2018-07-09T18:46:03.214Z,1.70
2018-07-09T18:48:32.008Z,1.93
2018-07-09T18:51:00.580Z,2.03
2018-07-09T18:53:29.047Z,1.70
2018-07-09T18:55:59.263Z,2.37
2018-07-09T18:58:28.134Z,1.70
2018-07-09T19:00:56.744Z,1.80
2018-07-09T19:03:25.409Z,1.67
2018-07-09T19:07:06.088Z,2.20
2018-07-09T19:09:35.415Z,1.80
2018-07-09T19:12:05.624Z,2.10
2018-07-09T19:14:36.404Z,2.00
2018-07-09T19:17:10.227Z,1.93
2018-07-09T19:19:50.578Z,2.10
2018-07-09T19:22:28.112Z,2.00
2018-07-09T19:24:55.434Z,2.20
2018-07-09T19:27:22.770Z,2.57
2018-07-09T19:29:50.325Z,2.03
2018-07-09T19:32:17.655Z,2.73
2018-07-09T19:34:45.058Z,2.30
2018-07-09T19:37:12.672Z,2.40
2018-07-09T19:39:39.822Z,2.07
2018-07-09T19:42:07.253Z,2.40
2018-07-09T19:44:34.549Z,2.10
2018-07-09T19:47:01.876Z,2.20
2018-07-09T19:49:29.264Z,2.40
2018-07-09T19:51:56.607Z,2.00
2018-07-09T19:54:24.383Z,2.23
2018-07-09T19:56:51.791Z,2.30
2018-07-09T19:59:19.116Z,2.27
2018-07-09T20:01:46.449Z,2.40
2018-07-09T20:04:13.844Z,2.10
2018-07-09T20:06:41.269Z,2.20
2018-07-09T20:09:13.987Z,2.30
2018-07-09T20:11:46.674Z,2.40
2018-07-09T20:14:19.169Z,2.13
2018-07-09T20:16:51.880Z,2.00
2018-07-09T20:19:19.171Z,2.50
2018-07-09T20:21:46.630Z,2.43
2018-07-09T20:24:14.098Z,2.00
2018-07-09T20:26:41.543Z,2.50
2018-07-09T20:29:08.878Z,2.37
2018-07-09T20:31:36.234Z,2.50
2018-07-09T20:34:03.696Z,2.30
2018-07-09T20:36:31.342Z,2.47
2018-07-09T20:38:58.686Z,2.43
2018-07-09T20:41:26.015Z,2.30
2018-07-09T20:43:53.312Z,2.40
2018-07-09T20:46:20.924Z,2.50
2018-07-09T20:48:48.253Z,2.70
2018-07-09T20:51:15.895Z,2.27
2018-07-09T20:53:43.212Z,2.20
2018-07-09T20:56:10.552Z,2.37
2018-07-09T20:58:37.875Z,2.40
2018-07-09T21:01:05.197Z,2.40
2018-07-09T21:03:32.722Z,2.30
2018-07-09T21:05:59.992Z,2.63
2018-07-09T21:08:27.326Z,2.57
2018-07-09T21:10:54.713Z,2.63
2018-07-09T21:13:22.074Z,2.33
2018-07-09T21:15:49.456Z,2.50
2018-07-09T21:18:16.686Z,2.73
2018-07-09T21:20:43.996Z,2.43
2018-07-09T21:23:11.308Z,2.93
2018-07-09T21:25:38.635Z,2.50
2018-07-09T21:28:05.924Z,2.43
2018-07-09T21:30:33.252Z,2.90
2018-07-09T21:33:00.567Z,2.30
2018-07-09T21:35:27.855Z,2.43
2018-07-09T21:37:55.506Z,2.90
2018-07-09T21:40:22.693Z,2.90
2018-07-09T21:42:50.093Z,2.30
2018-07-09T21:45:17.417Z,2.47
2018-07-09T21:47:44.710Z,2.40
2018-07-09T21:50:11.984Z,2.60
2018-07-09T21:52:39.304Z,2.40
2018-07-09T21:55:06.588Z,2.50
2018-07-09T21:57:33.883Z,2.60
2018-07-09T22:00:01.168Z,2.37
2018-07-09T22:02:28.519Z,2.30
2018-07-09T22:04:55.927Z,2.67
2018-07-09T22:07:23.349Z,2.50
2018-07-09T22:09:50.631Z,2.30
2018-07-09T22:12:18.201Z,2.60
2018-07-09T22:14:45.498Z,2.80
2018-07-09T22:17:12.802Z,2.50
2018-07-09T22:19:40.188Z,2.60
2018-07-09T22:22:07.549Z,2.47
2018-07-09T22:24:34.838Z,2.50
2018-07-09T22:27:02.130Z,2.40
2018-07-09T22:29:29.505Z,2.33
2018-07-09T22:31:58.031Z,3.10
2018-07-09T22:34:26.528Z,2.43
2018-07-09T22:36:55.239Z,2.40
2018-07-09T22:39:23.897Z,2.60
2018-07-09T22:41:52.319Z,2.60
2018-07-09T22:44:21.906Z,2.83
2018-07-09T22:46:50.487Z,2.40
2018-07-09T22:49:20.610Z,2.50
2018-07-09T22:51:49.206Z,2.30
2018-07-09T22:54:17.968Z,2.10
2018-07-09T22:56:46.668Z,2.63
2018-07-09T22:59:15.102Z,2.40
2018-07-09T23:01:43.557Z,2.27
2018-07-09T23:04:12.161Z,2.63
2018-07-09T23:06:40.759Z,2.60
2018-07-09T23:10:24.211Z,2.67
2018-07-09T23:13:19.224Z,2.50
2018-07-09T23:15:58.957Z,2.40
2018-07-09T23:18:38.623Z,2.50
2018-07-09T23:21:27.315Z,2.50
2018-07-09T23:23:54.615Z,2.47
2018-07-09T23:26:21.882Z,3.10
2018-07-09T23:28:49.232Z,2.10
2018-07-09T23:31:16.853Z,2.40
2018-07-09T23:33:44.131Z,2.40
2018-07-09T23:36:11.432Z,2.50
2018-07-09T23:38:38.710Z,2.60
2018-07-09T23:41:05.998Z,2.73
2018-07-09T23:43:33.260Z,2.40
2018-07-09T23:46:00.548Z,2.50
2018-07-09T23:48:27.833Z,2.50
2018-07-09T23:50:55.131Z,2.60
2018-07-09T23:53:22.455Z,2.23
2018-07-09T23:55:57.733Z,2.90
2018-07-09T23:59:36.427Z,2.50
